Terminal Aerodrome Forecast
Issued by NWS Melbourne, FL

Home | Current Version | Previous Version | Text Only | Print | Product List | Glossary On
Versions: 1 2 3 4 5 6 7 8 9 10 11 12 13 14 15 16
000
FTUS42 KMLB 222323
TAFMLB
TAF
KMLB 222323Z 2300/2324 12008KT P6SM FEW025 SCT035 BKN250
     FM231400 14010KT P6SM SCT020 SCT040 OVC250
     FM231800 15012KT P6SM VCSH SCT025 BKN050 OVC200=

USA.gov is the U.S. government's official web portal to all federal, state and local government web resources and services.